createdAt,value
2018-06-03T00:00:49.109Z,17.84
2018-06-03T00:03:18.681Z,17.78
2018-06-03T00:05:48.698Z,17.71
2018-06-03T00:08:24.194Z,17.81
2018-06-03T00:10:56.124Z,17.85
2018-06-03T00:13:27.311Z,17.81
2018-06-03T00:15:56.868Z,17.78
2018-06-03T00:18:26.575Z,17.75
2018-06-03T00:22:02.782Z,17.77
2018-06-03T00:24:32.807Z,17.69
2018-06-03T00:27:02.391Z,17.73
2018-06-03T00:29:32.320Z,17.73
2018-06-03T00:32:02.396Z,17.60
2018-06-03T00:34:32.944Z,17.58
2018-06-03T00:37:02.658Z,17.54
2018-06-03T00:39:32.828Z,17.49
2018-06-03T00:42:02.317Z,17.47
2018-06-03T00:44:32.410Z,17.48
2018-06-03T00:47:02.967Z,17.54
2018-06-03T00:49:33.335Z,17.51
2018-06-03T00:52:02.579Z,17.48
2018-06-03T00:54:32.577Z,17.49
2018-06-03T00:57:12.752Z,17.52
2018-06-03T00:59:42.338Z,17.45
2018-06-03T01:02:12.072Z,17.43
2018-06-03T01:04:41.629Z,17.39
2018-06-03T01:07:11.093Z,17.35
2018-06-03T01:09:40.632Z,17.33
2018-06-03T01:12:10.105Z,17.35
2018-06-03T01:14:39.773Z,17.34
2018-06-03T01:17:10.470Z,17.33
2018-06-03T01:19:40.301Z,17.31
2018-06-03T01:22:10.273Z,17.34
2018-06-03T01:24:39.937Z,17.37
2018-06-03T01:27:09.377Z,17.32
2018-06-03T01:29:38.876Z,17.34
2018-06-03T01:32:08.153Z,17.23
2018-06-03T01:34:37.447Z,17.27
2018-06-03T01:37:07.013Z,17.21
2018-06-03T01:39:36.460Z,17.20
2018-06-03T01:42:05.899Z,17.30
2018-06-03T01:44:35.463Z,17.24
2018-06-03T01:47:05.189Z,17.18
2018-06-03T01:49:34.862Z,17.20
2018-06-03T01:52:04.909Z,17.16
2018-06-03T01:54:34.377Z,17.19
2018-06-03T01:57:03.915Z,17.18
2018-06-03T01:59:34.019Z,17.18
2018-06-03T02:02:03.565Z,17.15
2018-06-03T02:04:33.012Z,17.17
2018-06-03T02:07:02.737Z,17.10
2018-06-03T02:09:32.254Z,17.16
2018-06-03T02:12:02.162Z,17.18
2018-06-03T02:14:31.638Z,17.13
2018-06-03T02:17:01.035Z,17.11
2018-06-03T02:19:30.580Z,17.09
2018-06-03T02:22:00.032Z,17.06
2018-06-03T02:24:30.857Z,17.07
2018-06-03T02:27:00.291Z,17.13
2018-06-03T02:29:30.533Z,17.12
2018-06-03T02:32:00.534Z,17.11
2018-06-03T02:34:30.098Z,17.10
2018-06-03T02:36:59.588Z,17.16
2018-06-03T02:39:29.082Z,17.18
2018-06-03T02:41:58.606Z,17.21
2018-06-03T02:44:28.051Z,17.16
2018-06-03T02:46:58.721Z,17.15
2018-06-03T02:49:28.842Z,17.16
2018-06-03T02:51:58.352Z,17.13
2018-06-03T02:54:28.519Z,17.09
2018-06-03T02:56:58.122Z,17.14
2018-06-03T02:59:27.619Z,17.23
2018-06-03T03:01:57.093Z,17.16
2018-06-03T03:04:26.632Z,17.15
2018-06-03T03:06:56.211Z,17.17
2018-06-03T03:09:26.774Z,17.21
2018-06-03T03:11:56.443Z,17.18
2018-06-03T03:14:26.792Z,17.17
2018-06-03T03:16:56.301Z,17.20
2018-06-03T03:19:25.911Z,17.16
2018-06-03T03:21:56.096Z,17.17
2018-06-03T03:24:25.622Z,17.24
2018-06-03T03:26:55.249Z,17.23
2018-06-03T03:29:24.849Z,17.18
2018-06-03T03:31:54.381Z,17.23
2018-06-03T03:34:23.845Z,17.27
2018-06-03T03:36:53.491Z,17.22
2018-06-03T03:39:22.969Z,17.22
2018-06-03T03:41:52.464Z,17.25
2018-06-03T03:44:21.928Z,17.20
2018-06-03T03:46:51.515Z,17.22
2018-06-03T03:49:21.032Z,17.22
2018-06-03T03:51:50.509Z,17.24
2018-06-03T03:54:20.136Z,17.25
2018-06-03T03:56:49.607Z,17.27
2018-06-03T03:59:19.172Z,17.13
2018-06-03T04:01:48.589Z,17.28
2018-06-03T04:04:17.784Z,17.32
2018-06-03T04:06:47.190Z,17.35
2018-06-03T04:09:17.146Z,17.27
2018-06-03T04:11:46.748Z,17.30
2018-06-03T04:14:16.390Z,17.33
2018-06-03T04:16:45.940Z,17.31
2018-06-03T04:19:15.182Z,17.32
2018-06-03T04:21:44.677Z,17.40
2018-06-03T04:24:14.197Z,17.32
2018-06-03T04:26:43.641Z,17.38
2018-06-03T04:29:13.733Z,17.33
2018-06-03T04:31:43.244Z,17.33
2018-06-03T04:34:12.668Z,17.33
2018-06-03T04:36:42.376Z,17.29
2018-06-03T04:39:12.241Z,17.26
2018-06-03T04:41:41.803Z,17.25
2018-06-03T04:44:11.290Z,17.27
2018-06-03T04:46:40.803Z,17.29
2018-06-03T04:49:10.269Z,17.27
2018-06-03T04:51:40.123Z,17.26
2018-06-03T04:54:09.640Z,17.24
2018-06-03T04:56:39.519Z,17.27
2018-06-03T04:59:09.067Z,17.23
2018-06-03T05:01:38.266Z,17.35
2018-06-03T05:04:07.866Z,17.31
2018-06-03T05:06:37.381Z,17.28
2018-06-03T05:09:08.306Z,17.29
2018-06-03T05:11:38.103Z,17.33
2018-06-03T05:14:07.598Z,17.30
2018-06-03T05:16:37.302Z,17.37
2018-06-03T05:19:07.024Z,17.47
2018-06-03T05:21:36.468Z,17.50
2018-06-03T05:24:06.236Z,17.43
2018-06-03T05:26:36.261Z,17.46
2018-06-03T05:29:05.832Z,17.46
2018-06-03T05:31:36.117Z,17.53
2018-06-03T05:34:06.000Z,17.54
2018-06-03T05:36:35.568Z,17.46
2018-06-03T05:39:07.593Z,17.58
2018-06-03T05:41:37.213Z,17.54
2018-06-03T05:44:06.681Z,17.47
2018-06-03T05:46:36.322Z,17.50
2018-06-03T05:49:05.894Z,17.61
2018-06-03T05:51:35.332Z,17.60
2018-06-03T05:54:05.140Z,17.53
2018-06-03T05:56:34.729Z,17.64
2018-06-03T05:59:04.285Z,17.64
2018-06-03T06:01:33.698Z,17.66
2018-06-03T06:04:02.866Z,17.74
2018-06-03T06:06:32.374Z,17.80
2018-06-03T06:09:01.862Z,17.86
2018-06-03T06:11:31.395Z,17.78
2018-06-03T06:14:00.924Z,17.74
2018-06-03T06:16:30.194Z,17.65
2018-06-03T06:19:00.531Z,17.63
2018-06-03T06:21:30.006Z,17.67
2018-06-03T06:23:59.544Z,17.58
2018-06-03T06:26:29.151Z,17.62
2018-06-03T06:28:58.865Z,17.61
2018-06-03T06:31:28.337Z,17.72
2018-06-03T06:33:57.926Z,17.71
2018-06-03T06:36:27.592Z,17.70
2018-06-03T06:38:57.054Z,17.78
2018-06-03T06:41:26.469Z,17.89
2018-06-03T06:43:55.968Z,18.03
2018-06-03T06:46:25.729Z,17.99
2018-06-03T06:48:55.935Z,18.07
2018-06-03T06:51:25.349Z,18.18
2018-06-03T06:53:55.999Z,18.11
2018-06-03T06:56:31.198Z,18.31
2018-06-03T06:59:01.020Z,18.43
2018-06-03T07:01:30.514Z,18.70
2018-06-03T07:04:00.408Z,18.73
2018-06-03T07:06:30.097Z,18.73
2018-06-03T07:09:00.390Z,18.62
2018-06-03T07:11:29.953Z,18.58
2018-06-03T07:13:59.478Z,18.63
2018-06-03T07:16:28.875Z,18.67
2018-06-03T07:18:58.399Z,18.93
2018-06-03T07:21:29.062Z,18.82
2018-06-03T07:24:01.708Z,18.82
2018-06-03T07:26:31.759Z,18.78
2018-06-03T07:29:01.901Z,18.92
2018-06-03T07:31:33.362Z,19.07
2018-06-03T07:34:04.589Z,19.23
2018-06-03T07:36:34.188Z,19.44
2018-06-03T07:39:07.647Z,19.43
2018-06-03T07:41:46.774Z,19.26
2018-06-03T07:44:24.622Z,19.20
2018-06-03T07:47:04.181Z,19.12
2018-06-03T07:49:35.064Z,18.99
2018-06-03T07:52:06.065Z,18.90
2018-06-03T07:54:37.857Z,18.74
2018-06-03T08:04:00.312Z,19.07
2018-06-03T08:06:29.779Z,19.04
2018-06-03T08:09:02.977Z,19.20
2018-06-03T08:11:33.813Z,19.25
2018-06-03T08:14:04.206Z,19.15
2018-06-03T08:16:37.014Z,19.33
2018-06-03T08:19:07.813Z,19.47
2018-06-03T08:21:38.695Z,19.47
2018-06-03T08:24:10.745Z,19.65
2018-06-03T08:26:41.095Z,19.71
2018-06-03T08:29:13.485Z,19.69
2018-06-03T08:31:45.026Z,19.63
2018-06-03T08:34:15.928Z,19.60
2018-06-03T08:36:47.822Z,19.58
2018-06-03T08:39:19.990Z,19.73
2018-06-03T08:41:49.966Z,19.72
2018-06-03T08:44:19.806Z,19.87
2018-06-03T08:46:51.099Z,19.83
2018-06-03T08:49:20.422Z,19.69
2018-06-03T08:51:50.453Z,19.61
2018-06-03T08:54:21.311Z,19.52
2018-06-03T08:56:53.544Z,19.58
2018-06-03T08:59:24.561Z,19.33
2018-06-03T09:01:55.569Z,19.22
2018-06-03T09:04:31.761Z,19.35
2018-06-03T09:07:04.339Z,19.25
2018-06-03T09:09:34.232Z,19.37
2018-06-03T09:12:09.966Z,19.42
2018-06-03T09:14:44.953Z,19.44
2018-06-03T09:17:14.712Z,19.41
2018-06-03T09:19:47.533Z,19.39
2018-06-03T09:22:19.795Z,19.62
2018-06-03T09:24:51.859Z,19.64
2018-06-03T09:27:27.166Z,19.67
2018-06-03T09:30:03.666Z,19.53
2018-06-03T09:32:35.335Z,19.67
2018-06-03T09:35:10.665Z,19.68
2018-06-03T09:37:45.414Z,19.71
2018-06-03T09:40:15.393Z,19.76
2018-06-03T09:42:46.116Z,19.83
2018-06-03T09:45:20.967Z,19.64
2018-06-03T09:47:54.490Z,19.79
2018-06-03T09:50:26.369Z,19.69
2018-06-03T09:52:58.056Z,19.87
2018-06-03T09:55:32.062Z,19.93
2018-06-03T09:58:04.964Z,20.29
2018-06-03T10:00:37.543Z,20.35
2018-06-03T10:03:08.675Z,20.36
2018-06-03T10:05:44.579Z,20.40
2018-06-03T10:08:19.371Z,20.19
2018-06-03T10:10:50.561Z,20.03
2018-06-03T10:13:20.082Z,19.93
2018-06-03T10:15:51.098Z,19.92
2018-06-03T10:18:23.427Z,19.90
2018-06-03T10:20:53.669Z,20.03
2018-06-03T10:23:25.045Z,19.93
2018-06-03T10:25:54.941Z,19.99
2018-06-03T10:28:25.155Z,19.95
2018-06-03T10:30:54.710Z,20.02
2018-06-03T10:33:24.246Z,20.25
2018-06-03T10:35:53.446Z,20.32
2018-06-03T10:38:22.938Z,20.50
2018-06-03T10:40:53.714Z,20.76
2018-06-03T10:43:25.007Z,21.17
2018-06-03T10:45:56.037Z,21.42
2018-06-03T10:48:27.991Z,21.67
2018-06-03T10:50:58.823Z,21.86
2018-06-03T10:53:29.637Z,21.33
2018-06-03T10:55:59.614Z,21.16
2018-06-03T10:58:30.266Z,21.25
2018-06-03T11:01:00.031Z,21.21
2018-06-03T11:03:30.367Z,20.94
2018-06-03T11:06:01.263Z,20.58
2018-06-03T11:08:31.483Z,20.20
2018-06-03T11:11:01.068Z,20.25
2018-06-03T11:13:30.471Z,20.14
2018-06-03T11:16:00.662Z,20.25
2018-06-03T11:18:30.202Z,20.39
2018-06-03T11:21:00.190Z,20.60
2018-06-03T11:23:29.763Z,20.81
2018-06-03T11:25:59.422Z,20.69
2018-06-03T11:28:29.001Z,20.95
2018-06-03T11:30:59.975Z,21.04
2018-06-03T11:33:29.769Z,21.07
2018-06-03T11:36:00.007Z,21.20
2018-06-03T11:38:31.257Z,21.53
2018-06-03T11:41:01.850Z,21.39
2018-06-03T11:43:32.032Z,21.42
2018-06-03T11:46:01.919Z,21.27
2018-06-03T11:48:32.294Z,21.20
2018-06-03T11:51:06.713Z,20.93
2018-06-03T11:53:36.230Z,21.03
2018-06-03T11:56:05.936Z,21.14
2018-06-03T11:58:54.648Z,20.94
2018-06-03T12:01:25.303Z,20.73
2018-06-03T12:03:54.664Z,20.66
2018-06-03T12:06:24.185Z,20.67
2018-06-03T12:08:54.334Z,20.62
2018-06-03T12:11:24.608Z,20.66
2018-06-03T12:13:56.007Z,20.71
2018-06-03T12:16:26.842Z,20.59
2018-06-03T12:18:57.387Z,20.73
2018-06-03T12:21:26.940Z,20.88
2018-06-03T12:23:57.868Z,21.22
2018-06-03T12:26:28.064Z,21.48
2018-06-03T12:28:57.698Z,21.28
2018-06-03T12:31:27.935Z,21.43
2018-06-03T12:33:57.441Z,21.83
2018-06-03T12:36:27.743Z,21.98
2018-06-03T12:38:57.252Z,22.16
2018-06-03T12:41:27.429Z,22.24
2018-06-03T12:43:56.933Z,21.94
2018-06-03T12:46:27.803Z,22.01
2018-06-03T12:48:58.074Z,22.03
2018-06-03T12:51:28.360Z,21.89
2018-06-03T12:53:59.368Z,21.67
2018-06-03T12:56:29.194Z,21.91
2018-06-03T12:58:58.834Z,22.22
2018-06-03T13:01:28.667Z,22.37
2018-06-03T13:03:58.283Z,22.38
2018-06-03T13:06:28.297Z,22.29
2018-06-03T13:08:58.586Z,22.62
2018-06-03T13:11:28.206Z,23.17
2018-06-03T13:13:57.690Z,22.88
2018-06-03T13:16:27.617Z,22.95
2018-06-03T13:18:57.353Z,23.31
2018-06-03T13:21:27.791Z,23.14
2018-06-03T13:23:57.269Z,22.59
2018-06-03T13:26:26.777Z,22.54
2018-06-03T13:28:56.266Z,22.37
2018-06-03T13:31:25.679Z,22.37
2018-06-03T13:33:55.162Z,22.33
2018-06-03T13:36:24.639Z,22.10
2018-06-03T13:38:54.043Z,22.36
2018-06-03T13:41:23.510Z,22.28
2018-06-03T13:43:53.443Z,22.24
2018-06-03T13:46:23.078Z,22.29
2018-06-03T13:48:52.532Z,22.28
2018-06-03T13:51:22.150Z,22.25
2018-06-03T13:53:51.753Z,22.13
2018-06-03T13:56:21.271Z,21.94
2018-06-03T13:58:50.825Z,22.14
2018-06-03T14:01:20.694Z,22.11
2018-06-03T14:03:50.229Z,22.37
2018-06-03T14:06:19.779Z,22.41
2018-06-03T14:08:49.829Z,22.73
2018-06-03T14:11:19.798Z,22.82
2018-06-03T14:13:48.966Z,22.71
2018-06-03T14:16:19.383Z,22.62
2018-06-03T14:18:48.866Z,23.08
2018-06-03T14:21:18.359Z,23.12
2018-06-03T14:23:48.509Z,23.20
2018-06-03T14:26:17.957Z,23.30
2018-06-03T14:28:47.241Z,23.06
2018-06-03T14:31:16.712Z,23.08
2018-06-03T14:33:46.204Z,22.78
2018-06-03T14:36:15.838Z,22.70
2018-06-03T14:38:45.349Z,22.43
2018-06-03T14:41:14.832Z,22.58
2018-06-03T14:43:44.661Z,22.68
2018-06-03T14:46:14.067Z,22.60
2018-06-03T14:48:43.603Z,22.40
2018-06-03T14:51:13.073Z,22.34
2018-06-03T14:53:42.572Z,22.04
2018-06-03T14:56:12.186Z,21.90
2018-06-03T14:58:41.630Z,21.88
2018-06-03T15:01:11.170Z,22.01
2018-06-03T15:03:40.591Z,22.05
2018-06-03T15:06:10.691Z,22.16
2018-06-03T15:08:40.204Z,22.05
2018-06-03T15:11:09.688Z,22.20
2018-06-03T15:13:39.337Z,21.89
2018-06-03T15:16:09.197Z,21.60
2018-06-03T15:18:38.766Z,21.59
2018-06-03T15:21:08.218Z,21.53
2018-06-03T15:23:37.896Z,21.73
2018-06-03T15:26:07.461Z,21.52
2018-06-03T15:28:37.385Z,21.55
2018-06-03T15:31:07.224Z,21.88
2018-06-03T15:33:36.891Z,22.22
2018-06-03T15:36:06.156Z,22.48
2018-06-03T15:38:35.737Z,22.55
2018-06-03T15:41:05.693Z,22.54
2018-06-03T15:43:35.798Z,22.55
2018-06-03T15:46:05.911Z,22.35
2018-06-03T15:48:35.411Z,22.73
2018-06-03T15:51:04.973Z,22.66
2018-06-03T15:53:34.980Z,22.47
2018-06-03T15:56:04.449Z,22.65
2018-06-03T15:58:34.682Z,23.10
2018-06-03T16:01:04.173Z,23.19
2018-06-03T16:03:34.020Z,23.36
2018-06-03T16:06:03.517Z,23.63
2018-06-03T16:08:33.212Z,23.39
2018-06-03T16:11:02.871Z,22.96
2018-06-03T16:13:32.432Z,22.58
2018-06-03T16:16:01.953Z,22.76
2018-06-03T16:18:31.424Z,22.73
2018-06-03T16:21:00.689Z,22.86
2018-06-03T16:23:30.117Z,22.81
2018-06-03T16:26:00.509Z,22.63
2018-06-03T16:28:30.105Z,22.55
2018-06-03T16:30:59.630Z,22.80
2018-06-03T16:33:29.301Z,22.49
2018-06-03T16:35:58.898Z,22.57
2018-06-03T16:38:28.450Z,22.83
2018-06-03T16:40:58.037Z,23.06
2018-06-03T16:43:27.534Z,23.41
2018-06-03T16:45:58.000Z,24.22
2018-06-03T16:48:28.148Z,24.65
2018-06-03T16:50:57.715Z,25.50
2018-06-03T16:53:27.225Z,26.05
2018-06-03T16:55:56.758Z,25.86
2018-06-03T16:58:26.350Z,25.16
2018-06-03T17:00:56.398Z,25.00
2018-06-03T17:03:25.975Z,24.58
2018-06-03T17:05:55.681Z,24.06
2018-06-03T17:08:24.881Z,23.41
2018-06-03T17:10:55.034Z,23.00
2018-06-03T17:13:25.178Z,23.11
2018-06-03T17:15:56.424Z,23.40
2018-06-03T17:20:54.605Z,23.80
2018-06-03T17:23:26.971Z,23.55
2018-06-03T17:25:56.544Z,23.05
2018-06-03T17:28:26.021Z,22.87
2018-06-03T17:30:55.657Z,22.92
2018-06-03T17:33:25.636Z,23.19
2018-06-03T17:35:55.190Z,22.94
2018-06-03T17:38:24.772Z,22.84
2018-06-03T17:40:54.424Z,22.67
2018-06-03T17:43:23.902Z,22.64
2018-06-03T17:45:56.564Z,22.41
2018-06-03T17:48:26.056Z,22.26
2018-06-03T17:51:00.783Z,22.21
2018-06-03T17:53:30.850Z,22.15
2018-06-03T17:56:01.069Z,22.23
2018-06-03T17:58:30.754Z,22.12
2018-06-03T18:01:00.253Z,22.09
2018-06-03T18:03:29.689Z,22.22
2018-06-03T18:05:59.283Z,22.28
2018-06-03T18:08:28.885Z,22.34
2018-06-03T18:10:58.377Z,22.35
2018-06-03T18:13:28.214Z,22.28
2018-06-03T18:15:57.918Z,22.21
2018-06-03T18:18:27.410Z,22.05
2018-06-03T18:20:56.919Z,21.81
2018-06-03T18:23:26.366Z,21.80
2018-06-03T18:25:55.613Z,21.62
2018-06-03T18:28:25.125Z,21.58
2018-06-03T18:30:55.572Z,21.40
2018-06-03T18:33:25.151Z,21.45
2018-06-03T18:35:54.756Z,21.26
2018-06-03T18:38:24.260Z,21.27
2018-06-03T18:40:53.919Z,21.14
2018-06-03T18:43:23.359Z,21.10
2018-06-03T18:45:52.951Z,21.16
2018-06-03T18:48:22.731Z,21.14
2018-06-03T18:50:52.223Z,21.03
2018-06-03T18:53:21.726Z,20.88
2018-06-03T18:55:51.345Z,20.84
2018-06-03T18:58:21.074Z,20.79
2018-06-03T19:00:50.561Z,20.65
2018-06-03T19:03:20.482Z,20.59
2018-06-03T19:05:50.003Z,20.49
2018-06-03T19:08:19.469Z,20.43
2018-06-03T19:10:48.974Z,20.41
2018-06-03T19:13:18.518Z,20.36
2018-06-03T19:15:47.938Z,20.23
2018-06-03T19:18:17.529Z,20.26
2018-06-03T19:20:46.994Z,20.17
2018-06-03T19:23:16.834Z,20.12
2018-06-03T19:25:46.326Z,19.98
2018-06-03T19:28:15.849Z,19.91
2018-06-03T19:30:45.242Z,19.92
2018-06-03T19:33:15.662Z,19.75
2018-06-03T19:35:45.481Z,19.73
2018-06-03T19:38:14.995Z,19.71
2018-06-03T19:40:44.601Z,19.64
2018-06-03T19:43:14.092Z,19.54
2018-06-03T19:48:12.058Z,19.48
2018-06-03T19:50:42.114Z,19.51
2018-06-03T19:53:11.597Z,19.42
2018-06-03T19:55:41.194Z,19.35
2018-06-03T19:58:10.766Z,19.30
2018-06-03T20:00:41.063Z,19.13
2018-06-03T20:03:10.549Z,19.06
2018-06-03T20:05:40.184Z,18.99
2018-06-03T20:08:10.242Z,18.74
2018-06-03T20:10:39.598Z,18.60
2018-06-03T20:13:09.178Z,18.40
2018-06-03T20:15:39.330Z,18.20
2018-06-03T20:18:08.956Z,18.12
2018-06-03T20:20:38.507Z,17.80
2018-06-03T20:23:08.033Z,17.79
2018-06-03T20:25:37.738Z,17.80
2018-06-03T20:28:07.376Z,17.74
2018-06-03T20:30:37.013Z,17.68
2018-06-03T20:33:06.391Z,17.64
2018-06-03T20:35:35.843Z,17.47
2018-06-03T20:38:06.771Z,17.35
2018-06-03T20:40:35.935Z,17.16
2018-06-03T20:43:05.549Z,17.09
2018-06-03T20:45:35.219Z,17.02
2018-06-03T20:48:05.544Z,17.01
2018-06-03T20:50:35.070Z,16.95
2018-06-03T20:53:05.427Z,16.90
2018-06-03T20:55:34.964Z,16.87
2018-06-03T20:58:04.630Z,16.88
2018-06-03T21:00:34.123Z,16.84
2018-06-03T21:03:04.065Z,16.80
2018-06-03T21:05:33.669Z,16.79
2018-06-03T21:08:03.120Z,16.76
2018-06-03T21:10:32.933Z,16.75
2018-06-03T21:13:03.048Z,16.54
2018-06-03T21:15:33.021Z,16.70
2018-06-03T21:18:02.653Z,16.71
2018-06-03T21:20:32.482Z,16.80
2018-06-03T21:23:03.311Z,16.86
2018-06-03T21:25:32.589Z,16.96
2018-06-03T21:28:02.273Z,17.05
2018-06-03T21:30:31.748Z,17.09
2018-06-03T21:33:03.089Z,17.18
2018-06-03T21:35:33.053Z,17.20
2018-06-03T21:38:02.534Z,17.23
2018-06-03T21:40:33.014Z,17.23
2018-06-03T21:43:02.674Z,17.31
2018-06-03T21:45:32.277Z,17.27
2018-06-03T21:48:01.783Z,17.28
2018-06-03T21:50:31.475Z,17.31
2018-06-03T21:53:01.891Z,17.23
2018-06-03T21:55:31.780Z,17.20
2018-06-03T21:58:01.636Z,17.14
2018-06-03T22:00:32.275Z,17.17
2018-06-03T22:03:01.976Z,17.16
2018-06-03T22:05:32.188Z,17.16
2018-06-03T22:08:01.920Z,17.12
2018-06-03T22:10:31.394Z,17.07
2018-06-03T22:13:01.643Z,17.08
2018-06-03T22:15:31.461Z,17.00
2018-06-03T22:18:02.666Z,16.98
2018-06-03T22:20:32.124Z,16.91
2018-06-03T22:23:01.617Z,16.88
2018-06-03T22:25:31.217Z,16.85
2018-06-03T22:28:00.921Z,16.76
2018-06-03T22:30:30.685Z,16.73
2018-06-03T22:33:00.322Z,16.72
2018-06-03T22:35:29.900Z,16.62
2018-06-03T22:37:59.654Z,16.61
2018-06-03T22:40:29.345Z,16.65
2018-06-03T22:42:59.821Z,16.61
2018-06-03T22:45:29.470Z,16.69
2018-06-03T22:47:58.889Z,16.57
2018-06-03T22:50:28.473Z,16.53
2018-06-03T22:52:58.162Z,16.50
2018-06-03T22:55:28.440Z,16.48
2018-06-03T22:57:57.784Z,16.55
2018-06-03T23:00:29.518Z,16.41
2018-06-03T23:03:04.492Z,16.39
2018-06-03T23:05:35.286Z,16.35
2018-06-03T23:08:04.647Z,16.37
2018-06-03T23:10:34.338Z,16.39
2018-06-03T23:13:03.899Z,16.30
2018-06-03T23:15:33.489Z,16.24
2018-06-03T23:18:03.010Z,16.22
2018-06-03T23:20:32.487Z,16.16
2018-06-03T23:23:01.985Z,16.12
2018-06-03T23:25:31.523Z,16.09
2018-06-03T23:28:01.935Z,16.08
2018-06-03T23:30:31.433Z,16.06
2018-06-03T23:33:01.174Z,16.09
2018-06-03T23:35:30.685Z,16.08
2018-06-03T23:38:00.285Z,16.04
2018-06-03T23:40:30.017Z,16.04
2018-06-03T23:42:59.528Z,16.09
2018-06-03T23:45:28.941Z,16.04
2018-06-03T23:47:58.746Z,16.05
2018-06-03T23:50:28.337Z,15.99
2018-06-03T23:52:58.041Z,16.01
2018-06-03T23:55:27.505Z,15.97
2018-06-03T23:57:57.048Z,15.94
